Time;durP1;ratioP1;P1;durP2;ratioP2;P2;SDS_P1;SDS_P2;PMS_P1;PMS_P2;Temp;Humidity;BMP_temperature;BMP_pressure;BME280_temperature;BME280_humidity;BME280_pressure;Samples;Min_cycle;Max_cycle;Signal;HPM_P1;HPM_P2
2023/07/29 00:01:31;;;;;;;15.90;12.77;;;18.30;99.90;;;;;;5027115;28;20045;-47
2023/07/29 00:03:56;;;;;;;17.77;13.07;;;18.30;99.90;;;;;;5039181;28;20044;-47
2023/07/29 00:06:23;;;;;;;14.02;12.52;;;18.30;99.90;;;;;;5036104;28;20061;-46
2023/07/29 00:08:49;;;;;;;15.02;12.77;;;18.30;99.90;;;;;;5026533;28;20064;-46
2023/07/29 00:11:14;;;;;;;14.68;12.02;;;18.30;99.90;;;;;;5027193;28;20803;-45
2023/07/29 00:13:40;;;;;;;14.25;11.77;;;18.30;99.90;;;;;;5028257;28;20103;-46
2023/07/29 00:16:06;;;;;;;14.80;12.10;;;18.20;99.90;;;;;;5037288;28;20041;-48
2023/07/29 00:18:32;;;;;;;13.85;11.43;;;18.20;99.90;;;;;;5026405;28;20478;-45
2023/07/29 00:20:58;;;;;;;14.27;11.38;;;18.20;99.90;;;;;;5026883;28;20037;-46
2023/07/29 00:23:23;;;;;;;16.85;12.40;;;18.20;99.90;;;;;;5041167;28;20099;-46
2023/07/29 00:25:49;;;;;;;13.05;11.35;;;18.20;99.90;;;;;;5026824;28;20041;-47
2023/07/29 00:28:15;;;;;;;12.95;11.43;;;18.10;99.90;;;;;;5026777;28;20049;-46
2023/07/29 00:30:40;;;;;;;14.35;10.48;;;18.10;99.90;;;;;;5027175;28;20546;-46
2023/07/29 00:33:06;;;;;;;11.75;10.55;;;18.20;99.90;;;;;;5026989;28;20111;-48
2023/07/29 00:35:32;;;;;;;13.48;11.35;;;18.20;99.90;;;;;;5026585;28;20392;-48
2023/07/29 00:37:57;;;;;;;13.55;11.75;;;18.20;99.90;;;;;;5026232;28;20091;-47
2023/07/29 00:40:23;;;;;;;14.02;11.13;;;18.20;99.90;;;;;;5026969;28;20046;-47
2023/07/29 00:42:50;;;;;;;11.57;10.27;;;18.20;99.90;;;;;;5026609;28;20053;-47
2023/07/29 00:45:16;;;;;;;12.13;10.82;;;18.10;99.90;;;;;;5026190;28;20637;-48
2023/07/29 00:47:42;;;;;;;13.55;11.07;;;18.10;99.90;;;;;;5026699;28;20045;-46
2023/07/29 00:50:10;;;;;;;13.48;11.15;;;18.00;99.90;;;;;;5026306;28;20045;-45
2023/07/29 00:52:36;;;;;;;13.05;10.65;;;18.00;99.90;;;;;;5040117;28;20072;-45
2023/07/29 00:55:02;;;;;;;12.82;10.77;;;18.00;99.90;;;;;;5026387;28;20468;-47
2023/07/29 00:57:29;;;;;;;17.17;11.45;;;17.90;99.90;;;;;;5026408;28;20050;-48
2023/07/29 00:59:56;;;;;;;13.57;11.40;;;17.90;99.90;;;;;;5025362;28;20038;-46
2023/07/29 01:02:22;;;;;;;13.23;10.95;;;17.90;99.90;;;;;;5026306;28;20041;-46
2023/07/29 01:04:54;;;;;;;13.82;11.00;;;18.00;99.90;;;;;;5026300;28;20091;-48
2023/07/29 01:08:00;;;;;;;16.10;11.93;;;17.90;99.90;;;;;;5024562;28;20045;-46
2023/07/29 01:10:39;;;;;;;15.93;11.02;;;17.90;99.90;;;;;;5025902;28;20460;-46
2023/07/29 01:13:13;;;;;;;14.02;10.95;;;17.80;99.90;;;;;;5026283;28;20041;-48
2023/07/29 01:15:58;;;;;;;15.18;12.00;;;17.80;99.90;;;;;;5037304;28;20041;-49
2023/07/29 01:18:29;;;;;;;17.02;11.40;;;17.80;99.90;;;;;;5025962;28;20126;-48
2023/07/29 01:21:01;;;;;;;15.30;12.07;;;17.70;99.90;;;;;;5026281;28;20050;-46
2023/07/29 01:23:30;;;;;;;14.93;11.98;;;17.80;99.90;;;;;;5023592;28;20120;-46
2023/07/29 01:25:56;;;;;;;14.23;12.48;;;17.80;99.90;;;;;;5025930;28;20041;-46
2023/07/29 01:28:22;;;;;;;14.10;11.65;;;17.80;99.90;;;;;;5026021;28;20124;-46
2023/07/29 01:30:51;;;;;;;15.85;12.30;;;17.80;99.90;;;;;;5041220;28;20038;-46
2023/07/29 01:33:25;;;;;;;15.18;12.40;;;17.80;99.90;;;;;;5026139;28;20050;-47
2023/07/29 01:36:25;;;;;;;16.33;12.60;;;17.80;99.90;;;;;;5025767;28;20042;-48
2023/07/29 01:38:54;;;;;;;17.58;13.13;;;17.70;99.90;;;;;;5013879;28;20524;-46
2023/07/29 01:41:21;;;;;;;16.17;12.43;;;17.70;99.90;;;;;;5026098;28;20037;-46
2023/07/29 01:43:47;;;;;;;16.75;11.93;;;17.70;99.90;;;;;;5026539;28;20064;-48
2023/07/29 01:46:14;;;;;;;15.13;12.45;;;17.70;99.90;;;;;;5025868;28;20044;-48
2023/07/29 01:48:40;;;;;;;17.63;12.57;;;17.60;99.90;;;;;;5024185;28;20677;-46
2023/07/29 01:51:06;;;;;;;16.90;13.25;;;17.60;99.90;;;;;;5024908;28;20033;-49
2023/07/29 01:53:32;;;;;;;16.35;12.85;;;17.50;99.90;;;;;;5024665;28;20046;-46
2023/07/29 01:55:58;;;;;;;15.75;12.50;;;17.50;99.90;;;;;;5025447;28;20072;-46
2023/07/29 01:58:24;;;;;;;16.58;12.35;;;17.50;99.90;;;;;;5024046;28;20543;-48
2023/07/29 02:00:50;;;;;;;15.98;13.13;;;17.50;99.90;;;;;;5025288;28;20099;-46
2023/07/29 02:03:16;;;;;;;14.10;12.32;;;17.40;99.90;;;;;;5026017;28;20045;-47
2023/07/29 02:05:43;;;;;;;14.18;12.50;;;17.40;99.90;;;;;;5025129;28;20106;-48
2023/07/29 02:08:12;;;;;;;17.08;12.85;;;17.40;99.90;;;;;;5024956;28;20050;-48
2023/07/29 02:10:38;;;;;;;16.83;13.18;;;17.40;99.90;;;;;;5031663;28;20080;-47
2023/07/29 02:13:04;;;;;;;17.52;12.52;;;17.40;99.90;;;;;;5031439;28;20077;-45
2023/07/29 02:15:29;;;;;;;16.92;12.48;;;17.40;99.90;;;;;;5036949;28;20049;-49
2023/07/29 02:17:55;;;;;;;18.63;13.32;;;17.30;99.90;;;;;;5025831;28;20365;-46
2023/07/29 02:20:21;;;;;;;14.25;12.00;;;17.40;99.90;;;;;;5028209;28;20046;-45
2023/07/29 02:22:48;;;;;;;16.63;11.32;;;17.30;99.90;;;;;;5028097;28;20492;-45
2023/07/29 02:25:14;;;;;;;15.18;12.23;;;17.30;99.90;;;;;;5028989;28;20053;-50
2023/07/29 02:27:39;;;;;;;15.30;12.07;;;17.30;99.90;;;;;;5029085;28;20457;-47
2023/07/29 02:30:06;;;;;;;16.20;12.60;;;17.20;99.90;;;;;;5028890;28;20053;-46
2023/07/29 02:32:31;;;;;;;14.90;12.43;;;17.20;99.90;;;;;;5028870;28;20377;-46
2023/07/29 02:34:57;;;;;;;18.40;12.25;;;17.10;99.90;;;;;;5028981;28;20103;-47
2023/07/29 02:37:22;;;;;;;14.25;11.65;;;17.10;99.90;;;;;;5027645;28;20136;-50
2023/07/29 02:39:48;;;;;;;19.10;12.40;;;17.10;99.90;;;;;;5029102;28;20120;-45
2023/07/29 02:42:14;;;;;;;14.35;12.63;;;17.10;99.90;;;;;;5028797;28;20055;-50
2023/07/29 02:44:40;;;;;;;16.17;11.95;;;17.10;99.90;;;;;;5028649;28;20041;-49
2023/07/29 02:47:06;;;;;;;15.00;11.80;;;17.10;99.90;;;;;;5028448;28;20042;-46
2023/07/29 02:49:31;;;;;;;16.73;12.18;;;17.10;99.90;;;;;;5028733;28;20045;-45
2023/07/29 02:51:57;;;;;;;13.07;11.18;;;17.00;99.90;;;;;;5028240;28;20037;-45
2023/07/29 02:54:23;;;;;;;16.80;11.68;;;17.00;99.90;;;;;;5028281;28;20766;-52
2023/07/29 02:56:50;;;;;;;15.68;11.88;;;17.00;99.90;;;;;;5028577;28;20560;-47
2023/07/29 02:59:15;;;;;;;17.70;11.68;;;17.00;99.90;;;;;;5028901;28;20056;-46
2023/07/29 03:01:41;;;;;;;14.20;11.50;;;17.00;99.90;;;;;;5028524;28;20042;-46
2023/07/29 03:04:06;;;;;;;15.60;11.70;;;17.00;99.90;;;;;;5027726;28;20514;-47
2023/07/29 03:06:32;;;;;;;15.60;11.85;;;16.90;99.90;;;;;;5027368;28;20049;-45
2023/07/29 03:08:58;;;;;;;15.35;11.75;;;16.90;99.90;;;;;;5026808;28;20060;-47
2023/07/29 03:11:24;;;;;;;14.98;11.18;;;16.90;99.90;;;;;;5027597;28;20045;-49
2023/07/29 03:13:50;;;;;;;13.70;11.30;;;16.80;99.90;;;;;;5030623;28;20045;-46
2023/07/29 03:16:17;;;;;;;17.15;11.02;;;16.80;99.90;;;;;;5037209;28;20045;-45
2023/07/29 03:18:43;;;;;;;16.23;12.40;;;16.80;99.90;;;;;;5027828;28;20084;-46
2023/07/29 03:21:10;;;;;;;16.13;11.43;;;16.80;99.90;;;;;;5027467;28;20080;-46
2023/07/29 03:23:36;;;;;;;14.18;11.20;;;16.80;99.90;;;;;;5027563;28;20171;-47
2023/07/29 03:26:09;;;;;;;15.43;11.55;;;16.80;99.90;;;;;;5027022;28;20049;-46
2023/07/29 03:28:36;;;;;;;15.60;11.80;;;16.80;99.90;;;;;;5028198;28;20415;-46
2023/07/29 03:31:02;;;;;;;15.27;11.30;;;16.70;99.90;;;;;;5027554;28;20045;-46
2023/07/29 03:33:28;;;;;;;16.55;11.13;;;16.70;99.90;;;;;;5027899;28;20387;-46
2023/07/29 03:35:54;;;;;;;15.65;11.13;;;16.70;99.90;;;;;;5027189;28;20041;-45
2023/07/29 03:38:19;;;;;;;17.02;10.70;;;16.60;99.90;;;;;;5027724;28;20471;-47
2023/07/29 03:40:45;;;;;;;14.73;11.25;;;16.70;99.90;;;;;;5027718;28;20476;-46
2023/07/29 03:43:11;;;;;;;14.20;10.82;;;16.70;99.90;;;;;;5027396;28;20037;-48
2023/07/29 03:45:38;;;;;;;14.75;11.65;;;16.60;99.90;;;;;;5027771;28;20041;-45
2023/07/29 03:48:04;;;;;;;15.20;10.85;;;16.60;99.90;;;;;;5027672;28;20049;-48
2023/07/29 03:50:30;;;;;;;15.15;11.70;;;16.60;99.90;;;;;;5027226;28;20514;-47
2023/07/29 03:52:56;;;;;;;14.40;10.90;;;16.60;99.90;;;;;;5025691;28;20121;-47
2023/07/29 03:55:22;;;;;;;16.33;11.30;;;16.50;99.90;;;;;;5027079;28;20052;-46
2023/07/29 03:57:47;;;;;;;14.23;10.35;;;16.50;99.90;;;;;;5026216;28;20449;-46
2023/07/29 04:00:13;;;;;;;13.75;11.30;;;16.50;99.90;;;;;;5026181;28;20102;-49
2023/07/29 04:02:39;;;;;;;14.07;10.63;;;16.50;99.90;;;;;;5027218;28;20095;-46
2023/07/29 04:05:08;;;;;;;14.05;10.75;;;16.50;99.90;;;;;;5026789;28;20037;-45
2023/07/29 04:07:34;;;;;;;14.43;10.40;;;16.50;99.90;;;;;;5025798;28;20089;-48
2023/07/29 04:10:00;;;;;;;14.45;10.85;;;16.50;99.90;;;;;;5027196;28;20042;-46
2023/07/29 04:12:26;;;;;;;15.27;10.60;;;16.50;99.90;;;;;;5027100;28;20042;-46
2023/07/29 04:14:52;;;;;;;16.85;11.10;;;16.50;99.90;;;;;;5031407;28;20201;-46
2023/07/29 04:17:18;;;;;;;14.13;10.52;;;16.50;99.90;;;;;;5030683;28;20049;-46
2023/07/29 04:19:43;;;;;;;14.00;10.07;;;16.50;99.90;;;;;;5026748;28;20046;-46
2023/07/29 04:22:09;;;;;;;15.38;10.35;;;16.50;99.90;;;;;;5025952;28;20111;-45
2023/07/29 04:24:34;;;;;;;14.48;10.70;;;16.50;99.90;;;;;;5026782;28;20171;-45
2023/07/29 04:27:00;;;;;;;13.63;10.10;;;16.50;99.90;;;;;;5027132;28;20037;-45
2023/07/29 04:29:26;;;;;;;14.18;10.05;;;16.40;99.90;;;;;;5027135;28;20580;-45
2023/07/29 04:31:51;;;;;;;14.98;10.00;;;16.40;99.90;;;;;;5026676;28;20041;-45
2023/07/29 04:34:20;;;;;;;13.07;9.93;;;16.40;99.90;;;;;;5026449;28;20126;-45
2023/07/29 04:36:46;;;;;;;13.32;9.50;;;16.40;99.90;;;;;;5026251;28;20114;-45
2023/07/29 04:39:12;;;;;;;14.48;9.07;;;16.50;99.90;;;;;;5026762;28;20124;-46
2023/07/29 04:41:38;;;;;;;12.25;9.07;;;16.50;99.90;;;;;;5026153;28;20545;-48
2023/07/29 04:44:04;;;;;;;12.90;8.80;;;16.70;99.90;;;;;;5026020;28;20500;-46
2023/07/29 04:46:29;;;;;;;14.00;8.75;;;16.50;99.90;;;;;;5026656;28;20380;-48
2023/07/29 04:48:55;;;;;;;14.73;9.55;;;16.60;99.90;;;;;;5026105;28;20049;-45
2023/07/29 04:51:21;;;;;;;13.05;8.65;;;16.60;99.90;;;;;;5025604;28;20033;-47
2023/07/29 04:53:47;;;;;;;11.35;8.38;;;16.70;99.90;;;;;;5026297;28;20049;-45
2023/07/29 04:56:12;;;;;;;12.85;7.82;;;16.70;99.90;;;;;;5026164;28;20059;-46
2023/07/29 04:58:38;;;;;;;11.93;8.10;;;16.80;99.90;;;;;;5026380;28;20053;-48
2023/07/29 05:01:04;;;;;;;9.40;6.97;;;16.90;99.90;;;;;;5024906;28;20045;-48
2023/07/29 05:03:30;;;;;;;13.88;7.50;;;17.00;99.90;;;;;;5025010;28;20641;-45
2023/07/29 05:05:57;;;;;;;12.77;7.35;;;17.00;99.90;;;;;;5025459;28;20045;-45
2023/07/29 05:08:23;;;;;;;12.27;7.47;;;17.10;99.90;;;;;;5024655;28;20056;-46
2023/07/29 05:10:52;;;;;;;9.85;6.97;;;17.10;99.90;;;;;;5026067;28;20045;-49
2023/07/29 05:13:19;;;;;;;10.13;7.63;;;16.90;99.90;;;;;;5025421;28;20488;-47
2023/07/29 05:15:45;;;;;;;11.38;7.20;;;17.10;99.90;;;;;;5037202;28;20052;-45
2023/07/29 05:18:11;;;;;;;9.52;7.07;;;17.10;99.90;;;;;;5026180;28;20041;-47
2023/07/29 05:20:36;;;;;;;8.52;6.55;;;17.20;99.90;;;;;;5024965;28;20080;-46
2023/07/29 05:23:02;;;;;;;9.25;6.60;;;17.30;99.90;;;;;;5025473;28;20076;-46
2023/07/29 05:25:28;;;;;;;8.07;6.15;;;17.30;99.90;;;;;;5040823;28;20042;-45
2023/07/29 05:27:54;;;;;;;10.50;6.72;;;17.30;99.90;;;;;;5026006;28;20084;-48
2023/07/29 05:30:20;;;;;;;9.90;6.30;;;17.20;99.90;;;;;;5025838;28;20092;-45
2023/07/29 05:32:45;;;;;;;8.90;6.35;;;17.20;99.90;;;;;;5026175;28;20391;-46
2023/07/29 05:35:11;;;;;;;9.38;5.75;;;17.30;99.90;;;;;;5025776;28;20041;-45
2023/07/29 05:37:40;;;;;;;7.80;6.18;;;17.20;99.90;;;;;;5024617;28;20467;-46
2023/07/29 05:40:06;;;;;;;8.40;6.20;;;17.10;99.90;;;;;;5025808;28;20042;-45
2023/07/29 05:42:33;;;;;;;9.15;5.88;;;17.10;99.90;;;;;;5025059;28;20041;-46
2023/07/29 05:44:58;;;;;;;8.85;6.10;;;17.10;99.90;;;;;;5024770;28;20067;-50
2023/07/29 05:47:24;;;;;;;12.15;5.75;;;17.10;99.90;;;;;;5024781;28;20041;-49
2023/07/29 05:49:49;;;;;;;7.85;5.13;;;17.10;99.90;;;;;;5025107;28;20465;-46
2023/07/29 05:52:15;;;;;;;6.93;4.95;;;17.20;99.90;;;;;;5024759;28;20045;-48
2023/07/29 05:54:42;;;;;;;6.57;4.90;;;17.20;99.90;;;;;;5026297;28;20307;-45
2023/07/29 05:57:09;;;;;;;8.20;4.93;;;17.20;99.90;;;;;;5028630;28;20090;-46
2023/07/29 05:59:35;;;;;;;9.45;5.03;;;17.20;99.90;;;;;;5028605;28;20041;-46
2023/07/29 06:02:00;;;;;;;7.28;4.82;;;17.30;99.90;;;;;;5027686;28;20362;-47
2023/07/29 06:04:26;;;;;;;11.15;5.40;;;17.20;99.90;;;;;;5028881;28;20120;-47
2023/07/29 06:06:51;;;;;;;8.05;4.85;;;17.20;99.90;;;;;;5029800;28;20050;-48
2023/07/29 06:09:17;;;;;;;6.88;4.50;;;17.30;99.90;;;;;;5036286;28;20385;-45
2023/07/29 06:11:43;;;;;;;5.95;4.30;;;17.30;99.90;;;;;;5048280;28;20455;-45
2023/07/29 06:14:08;;;;;;;7.20;4.60;;;17.40;99.90;;;;;;5045020;28;20045;-45
2023/07/29 06:16:34;;;;;;;7.25;4.40;;;17.40;99.90;;;;;;5037701;28;20408;-45
2023/07/29 06:19:00;;;;;;;6.38;4.35;;;17.30;99.90;;;;;;5029388;28;20048;-45
2023/07/29 06:21:25;;;;;;;7.28;4.43;;;17.30;99.90;;;;;;5028234;28;20037;-46
2023/07/29 06:23:51;;;;;;;7.53;4.43;;;17.40;99.90;;;;;;5028737;28;20487;-44
2023/07/29 06:26:16;;;;;;;7.22;4.07;;;17.40;99.90;;;;;;5029263;28;20802;-45
2023/07/29 06:28:42;;;;;;;6.93;3.72;;;17.40;99.90;;;;;;5028305;28;20648;-45
2023/07/29 06:31:08;;;;;;;6.07;4.05;;;17.40;99.90;;;;;;5029110;28;20033;-45
2023/07/29 06:33:33;;;;;;;9.38;3.97;;;17.40;99.90;;;;;;5028920;28;20041;-44
2023/07/29 06:35:59;;;;;;;6.97;4.10;;;17.40;99.90;;;;;;5028194;28;20045;-45
2023/07/29 06:38:24;;;;;;;7.70;3.60;;;17.40;99.90;;;;;;5028995;28;20664;-48
2023/07/29 06:40:50;;;;;;;6.68;3.85;;;17.50;99.90;;;;;;5028674;28;20452;-45
2023/07/29 06:43:16;;;;;;;7.10;3.78;;;17.60;99.90;;;;;;5028450;28;20042;-49
2023/07/29 06:45:43;;;;;;;7.18;3.67;;;17.60;99.90;;;;;;5028818;28;20041;-47
2023/07/29 06:48:08;;;;;;;5.00;3.80;;;17.70;99.90;;;;;;5028890;28;20049;-47
2023/07/29 06:50:34;;;;;;;6.00;3.47;;;17.70;99.90;;;;;;5028091;28;20450;-46
2023/07/29 06:52:59;;;;;;;6.78;3.20;;;17.60;99.90;;;;;;5028350;28;20124;-48
2023/07/29 06:55:25;;;;;;;7.13;3.65;;;17.60;99.90;;;;;;5028656;28;20549;-48
2023/07/29 06:57:51;;;;;;;10.65;3.88;;;17.70;99.90;;;;;;5028654;28;20456;-46
2023/07/29 07:00:16;;;;;;;5.22;3.50;;;17.80;99.90;;;;;;5027754;28;20488;-48
2023/07/29 07:02:42;;;;;;;5.28;3.50;;;17.90;99.90;;;;;;5028525;28;20430;-50
2023/07/29 07:05:08;;;;;;;5.07;3.30;;;18.00;99.90;;;;;;5028375;28;20060;-48
2023/07/29 07:07:34;;;;;;;5.68;3.40;;;18.10;99.90;;;;;;5026303;28;20480;-48
2023/07/29 07:10:00;;;;;;;6.53;3.20;;;18.20;99.90;;;;;;5028229;28;20133;-46
2023/07/29 07:12:25;;;;;;;6.22;3.38;;;18.30;99.90;;;;;;5028183;28;20040;-47
2023/07/29 07:14:51;;;;;;;5.70;3.03;;;18.30;99.90;;;;;;5033796;28;20135;-49
2023/07/29 07:17:16;;;;;;;6.47;3.70;;;18.30;99.90;;;;;;5032530;28;20065;-46
2023/07/29 07:19:42;;;;;;;8.02;3.58;;;18.40;99.90;;;;;;5028365;28;20504;-46
2023/07/29 07:22:08;;;;;;;8.20;3.88;;;18.50;99.90;;;;;;5027328;28;20461;-45
2023/07/29 07:24:33;;;;;;;6.78;3.38;;;18.60;99.90;;;;;;5028289;28;20045;-46
2023/07/29 07:26:59;;;;;;;7.07;3.75;;;18.90;99.90;;;;;;5033863;28;20042;-46
2023/07/29 07:29:25;;;;;;;7.28;3.83;;;19.40;99.90;;;;;;5039277;28;20053;-46
2023/07/29 07:31:53;;;;;;;7.57;4.15;;;19.70;99.90;;;;;;5027824;28;20048;-44
2023/07/29 07:34:22;;;;;;;8.75;4.10;;;19.90;99.90;;;;;;5027570;28;20057;-46
2023/07/29 07:36:48;;;;;;;8.93;4.80;;;19.80;99.90;;;;;;5027243;28;20045;-46
2023/07/29 07:39:14;;;;;;;7.75;4.15;;;19.60;99.90;;;;;;5027883;28;20049;-49
2023/07/29 07:41:40;;;;;;;10.32;4.30;;;19.50;99.90;;;;;;5027151;28;20115;-47
2023/07/29 07:44:06;;;;;;;10.90;4.80;;;19.40;99.90;;;;;;5027397;28;20080;-47
2023/07/29 07:46:31;;;;;;;8.65;4.15;;;19.30;99.90;;;;;;5012265;28;20472;-45
2023/07/29 07:48:57;;;;;;;8.25;4.40;;;19.30;99.90;;;;;;5036750;28;20041;-48
2023/07/29 07:51:23;;;;;;;8.77;4.97;;;19.30;99.90;;;;;;5032134;28;20555;-47
2023/07/29 07:53:48;;;;;;;7.57;5.25;;;19.40;99.90;;;;;;5027539;28;20140;-46
2023/07/29 07:56:15;;;;;;;10.00;5.70;;;19.60;99.90;;;;;;5027688;28;20038;-46
2023/07/29 07:58:41;;;;;;;9.25;6.18;;;19.60;99.90;;;;;;5027010;28;20046;-49
2023/07/29 08:01:07;;;;;;;12.45;5.53;;;19.60;99.90;;;;;;5026814;28;20088;-48
2023/07/29 08:03:34;;;;;;;7.20;5.80;;;19.60;99.90;;;;;;5012367;28;20041;-47
2023/07/29 08:06:00;;;;;;;8.50;5.60;;;19.70;99.90;;;;;;5025341;28;20057;-47
2023/07/29 08:08:26;;;;;;;9.13;6.13;;;19.80;99.90;;;;;;5043543;28;20132;-47
2023/07/29 08:10:56;;;;;;;10.57;6.43;;;19.90;99.90;;;;;;5040313;28;20044;-46
2023/07/29 08:13:23;;;;;;;8.40;6.05;;;19.80;99.90;;;;;;5026857;28;20099;-52
2023/07/29 08:15:51;;;;;;;9.07;6.07;;;19.70;99.90;;;;;;5037840;28;20450;-48
2023/07/29 08:18:17;;;;;;;8.45;5.90;;;19.70;99.90;;;;;;5042097;28;20042;-46
2023/07/29 08:20:57;;;;;;;8.18;5.78;;;19.80;99.90;;;;;;5033416;28;20037;-48
2023/07/29 08:23:26;;;;;;;11.98;5.85;;;20.00;99.90;;;;;;5026715;28;20083;-48
2023/07/29 08:25:56;;;;;;;9.07;5.90;;;19.90;99.90;;;;;;5026666;28;20053;-46
2023/07/29 08:28:24;;;;;;;11.05;6.47;;;19.80;99.90;;;;;;5026437;28;20047;-46
2023/07/29 08:30:50;;;;;;;9.25;5.72;;;19.80;99.90;;;;;;5027197;28;20071;-46
2023/07/29 08:33:16;;;;;;;7.20;5.53;;;20.00;99.90;;;;;;5027177;28;20041;-46
2023/07/29 08:35:41;;;;;;;11.07;6.13;;;20.20;99.90;;;;;;5025941;28;20390;-51
2023/07/29 08:38:07;;;;;;;8.38;6.00;;;20.40;99.90;;;;;;5025167;28;20042;-48
2023/07/29 08:40:37;;;;;;;9.48;6.07;;;20.50;99.90;;;;;;5045712;28;20090;-47
2023/07/29 08:43:05;;;;;;;8.77;5.63;;;20.60;99.90;;;;;;5046558;28;20076;-47
2023/07/29 08:45:34;;;;;;;9.57;6.10;;;20.70;99.90;;;;;;5046038;28;20052;-47
2023/07/29 08:48:05;;;;;;;7.22;5.88;;;20.60;99.90;;;;;;5046728;28;20045;-47
2023/07/29 08:50:32;;;;;;;9.90;5.43;;;20.50;99.90;;;;;;5045747;28;20116;-47
2023/07/29 08:52:59;;;;;;;9.45;4.97;;;20.50;99.90;;;;;;5045797;28;20131;-47
2023/07/29 08:55:25;;;;;;;10.63;5.60;;;20.50;99.90;;;;;;5046394;28;20044;-47
2023/07/29 08:57:51;;;;;;;9.50;5.10;;;20.60;99.90;;;;;;5046433;28;20427;-46
2023/07/29 09:00:17;;;;;;;7.55;5.22;;;20.80;99.90;;;;;;5046071;28;20052;-47
2023/07/29 09:02:42;;;;;;;7.78;5.70;;;21.00;99.90;;;;;;5046145;28;20590;-46
2023/07/29 09:05:08;;;;;;;8.70;5.30;;;21.00;99.90;;;;;;5045627;28;20074;-47
2023/07/29 09:07:36;;;;;;;7.35;4.70;;;21.20;99.90;;;;;;5045843;28;20094;-47
2023/07/29 09:10:01;;;;;;;8.68;4.57;;;21.30;99.90;;;;;;5046284;28;20053;-48
2023/07/29 09:12:27;;;;;;;7.82;4.47;;;21.40;99.90;;;;;;5045129;28;20051;-53
2023/07/29 09:14:54;;;;;;;6.65;4.43;;;21.20;99.90;;;;;;5039876;28;20052;-52
2023/07/29 09:17:20;;;;;;;6.03;4.10;;;21.00;99.90;;;;;;5031676;28;20123;-50
2023/07/29 09:19:50;;;;;;;6.40;3.80;;;20.80;99.90;;;;;;5038612;28;20053;-47
2023/07/29 09:22:20;;;;;;;7.07;3.75;;;20.70;99.90;;;;;;5044779;28;20040;-47
2023/07/29 09:24:46;;;;;;;7.35;3.55;;;20.60;99.90;;;;;;5030975;28;20072;-49
2023/07/29 09:27:29;;;;;;;8.20;3.80;;;20.70;99.90;;;;;;5026025;28;20041;-49
2023/07/29 09:29:56;;;;;;;6.03;3.22;;;20.80;99.90;;;;;;5024892;28;20046;-50
2023/07/29 09:32:23;;;;;;;5.57;3.40;;;21.00;99.90;;;;;;5025711;28;20104;-49
2023/07/29 09:34:49;;;;;;;5.88;3.22;;;21.20;99.90;;;;;;5026268;28;20137;-50
2023/07/29 09:37:21;;;;;;;7.50;3.60;;;21.40;99.90;;;;;;5025171;28;20167;-52
2023/07/29 09:39:48;;;;;;;5.82;3.30;;;21.30;99.90;;;;;;5026229;28;20076;-50
2023/07/29 09:42:21;;;;;;;5.50;3.67;;;21.30;99.90;;;;;;5024686;28;20049;-49
2023/07/29 09:44:49;;;;;;;6.03;3.40;;;21.30;99.90;;;;;;5026120;28;20411;-48
2023/07/29 09:47:25;;;;;;;5.30;3.55;;;21.00;99.90;;;;;;5025872;28;20050;-49
2023/07/29 09:49:52;;;;;;;6.65;3.40;;;21.10;99.90;;;;;;5024106;28;20053;-48
2023/07/29 09:52:19;;;;;;;6.53;3.80;;;21.00;99.90;;;;;;5025535;28;20041;-49
2023/07/29 09:54:46;;;;;;;8.52;3.28;;;21.00;99.90;;;;;;5027222;28;20321;-45
2023/07/29 09:57:14;;;;;;;6.20;3.00;;;21.00;99.90;;;;;;5045522;28;20049;-49
2023/07/29 09:59:40;;;;;;;6.15;3.33;;;21.10;99.90;;;;;;5045386;28;20106;-44
2023/07/29 10:02:14;;;;;;;6.70;2.90;;;21.10;99.90;;;;;;5045958;28;20037;-45
2023/07/29 10:04:41;;;;;;;5.03;3.10;;;21.10;99.90;;;;;;5043672;28;20091;-48
2023/07/29 10:07:09;;;;;;;4.32;3.08;;;21.10;99.90;;;;;;5043553;28;20148;-46
2023/07/29 10:09:35;;;;;;;6.75;3.28;;;21.40;99.90;;;;;;5044894;28;20053;-48
2023/07/29 10:12:01;;;;;;;6.10;2.55;;;21.60;99.90;;;;;;5044765;28;20045;-44
2023/07/29 10:14:30;;;;;;;7.47;2.80;;;21.90;99.90;;;;;;5038463;28;20057;-45
2023/07/29 10:16:57;;;;;;;5.80;2.63;;;22.00;99.90;;;;;;5033126;28;20476;-45
2023/07/29 10:19:25;;;;;;;7.25;2.55;;;22.10;99.90;;;;;;5025339;28;20048;-45
2023/07/29 10:21:52;;;;;;;6.25;2.47;;;21.90;99.90;;;;;;5024432;28;20486;-45
2023/07/29 10:24:29;;;;;;;4.03;2.40;;;22.00;99.90;;;;;;5025491;28;20143;-44
2023/07/29 10:26:58;;;;;;;5.03;2.55;;;22.20;99.90;;;;;;5024094;28;20045;-44
2023/07/29 10:29:24;;;;;;;5.10;2.03;;;22.30;99.90;;;;;;5024887;28;20041;-46
2023/07/29 10:31:55;;;;;;;4.72;2.00;;;22.60;99.90;;;;;;5025735;28;20046;-47
2023/07/29 10:34:22;;;;;;;5.82;2.25;;;22.80;99.90;;;;;;5025620;28;20073;-46
2023/07/29 10:36:49;;;;;;;5.20;2.00;;;22.80;99.90;;;;;;5024365;28;20045;-45
2023/07/29 10:39:15;;;;;;;4.22;2.08;;;22.80;99.90;;;;;;5025138;28;20041;-47
2023/07/29 10:41:56;;;;;;;3.65;1.88;;;23.00;99.90;;;;;;5027017;28;20041;-49
2023/07/29 10:44:41;;;;;;;4.30;1.90;;;23.10;99.90;;;;;;5028672;28;20088;-46
2023/07/29 10:47:24;;;;;;;2.97;1.80;;;23.00;99.90;;;;;;5028475;28;20049;-46
2023/07/29 10:49:54;;;;;;;3.40;1.85;;;23.10;99.90;;;;;;5028360;28;20103;-45
2023/07/29 10:52:41;;;;;;;6.70;2.33;;;23.20;99.90;;;;;;5044230;28;20061;-45
2023/07/29 10:55:43;;;;;;;4.65;1.85;;;23.30;99.90;;;;;;5029103;28;20629;-45
2023/07/29 10:58:17;;;;;;;5.20;2.10;;;23.30;99.90;;;;;;5028728;28;20530;-45
2023/07/29 11:00:44;;;;;;;3.47;1.75;;;23.10;99.90;;;;;;5029186;28;20598;-45
2023/07/29 11:03:14;;;;;;;6.03;2.22;;;23.00;99.90;;;;;;5028235;28;20061;-46
2023/07/29 11:05:47;;;;;;;5.15;1.90;;;23.00;99.90;;;;;;5026296;28;20132;-45
2023/07/29 11:08:21;;;;;;;5.85;2.20;;;22.90;99.90;;;;;;5028761;28;20053;-45
2023/07/29 11:11:05;;;;;;;3.53;2.03;;;22.70;99.90;;;;;;5028183;28;20049;-45
2023/07/29 11:13:32;;;;;;;4.68;2.15;;;22.70;99.90;;;;;;5028540;28;20042;-45
2023/07/29 11:15:59;;;;;;;3.50;2.25;;;23.00;99.90;;;;;;5039082;28;20095;-46
2023/07/29 11:18:30;;;;;;;6.80;2.67;;;23.40;99.90;;;;;;5026672;28;20537;-45
2023/07/29 11:20:56;;;;;;;5.22;2.90;;;23.70;99.90;;;;;;5027378;28;20045;-45
2023/07/29 11:23:31;;;;;;;6.22;2.72;;;23.90;99.90;;;;;;5027606;28;20045;-45
2023/07/29 11:25:58;;;;;;;4.75;2.60;;;24.10;99.90;;;;;;5028109;28;20064;-47
2023/07/29 11:28:24;;;;;;;4.20;2.08;;;24.20;99.90;;;;;;5028246;28;20128;-46
2023/07/29 11:30:51;;;;;;;4.47;2.22;;;24.00;99.90;;;;;;5027623;28;20396;-46
2023/07/29 11:33:21;;;;;;;3.35;2.05;;;23.70;99.90;;;;;;5028422;28;20050;-49
2023/07/29 11:35:47;;;;;;;3.92;2.03;;;23.40;99.90;;;;;;5026741;28;20645;-48
2023/07/29 11:38:19;;;;;;;4.65;1.50;;;23.30;99.90;;;;;;5027714;28;20041;-47
2023/07/29 11:40:59;;;;;;;4.95;1.58;;;23.50;99.90;;;;;;5031849;28;20044;-48
2023/07/29 11:43:26;;;;;;;3.08;1.35;;;23.60;99.90;;;;;;5040957;28;20100;-46
2023/07/29 11:45:53;;;;;;;5.60;1.83;;;23.40;99.90;;;;;;5045526;28;20053;-45
2023/07/29 11:48:26;;;;;;;9.48;1.67;;;23.30;99.90;;;;;;5046668;28;20041;-47
2023/07/29 11:50:53;;;;;;;3.38;1.52;;;23.20;99.90;;;;;;5045123;28;20135;-46
2023/07/29 11:53:19;;;;;;;5.57;1.63;;;22.90;99.90;;;;;;5042062;28;20118;-50
2023/07/29 11:55:44;;;;;;;6.38;1.80;;;22.70;99.90;;;;;;5037011;28;20116;-46
2023/07/29 11:58:10;;;;;;;6.25;1.75;;;22.50;99.90;;;;;;5038944;28;20064;-47
2023/07/29 12:00:37;;;;;;;4.00;1.85;;;22.40;99.90;;;;;;5027515;28;20662;-46
2023/07/29 12:03:03;;;;;;;4.85;1.50;;;22.60;99.90;;;;;;5028154;28;20105;-47
2023/07/29 12:05:30;;;;;;;3.20;1.20;;;22.90;99.90;;;;;;5031235;28;20041;-47
2023/07/29 12:07:55;;;;;;;2.80;1.35;;;23.10;99.90;;;;;;5035767;28;20123;-46
2023/07/29 12:10:21;;;;;;;3.03;1.45;;;23.00;99.90;;;;;;5035721;28;20456;-47
2023/07/29 12:12:51;;;;;;;5.38;1.35;;;23.00;99.90;;;;;;5034660;28;20436;-47
2023/07/29 12:15:24;;;;;;;3.58;1.27;;;23.00;99.90;;;;;;5038160;28;20045;-47
2023/07/29 12:17:56;;;;;;;5.22;1.60;;;22.90;99.90;;;;;;5035689;28;20134;-46
2023/07/29 12:20:22;;;;;;;4.82;1.30;;;23.10;99.90;;;;;;5024432;28;20045;-47
2023/07/29 12:22:54;;;;;;;6.63;1.90;;;23.20;99.90;;;;;;5030050;28;20048;-46
2023/07/29 12:25:20;;;;;;;5.03;1.70;;;23.30;99.90;;;;;;5031875;28;20133;-46
2023/07/29 12:27:47;;;;;;;3.78;1.40;;;23.40;99.90;;;;;;5027583;28;20041;-45
2023/07/29 12:30:12;;;;;;;3.28;1.58;;;23.50;99.90;;;;;;5036139;28;20431;-46
2023/07/29 12:32:46;;;;;;;4.30;1.60;;;23.70;99.90;;;;;;5044959;28;20053;-45
2023/07/29 12:35:11;;;;;;;4.40;1.80;;;23.60;99.90;;;;;;5042043;28;20052;-46
2023/07/29 12:37:38;;;;;;;4.10;1.65;;;23.60;99.90;;;;;;5016847;28;20037;-47
2023/07/29 12:40:04;;;;;;;4.38;1.73;;;23.30;99.90;;;;;;5026741;28;20116;-46